createdAt,value
2022-08-25T00:00:37.693Z,101660.97
2022-08-25T00:01:46.935Z,101656.63
2022-08-25T00:02:55.197Z,101661.22
2022-08-25T00:04:01.867Z,101661.22
2022-08-25T00:05:06.583Z,101660.91
2022-08-25T00:06:09.913Z,101661.47
2022-08-25T00:07:13.300Z,101652.75
2022-08-25T00:08:20.670Z,101659.84
2022-08-25T00:09:27.698Z,101652.75
2022-08-25T00:10:30.342Z,101657.38
2022-08-25T00:11:35.109Z,101651.94
2022-08-25T00:12:37.209Z,101651.34
2022-08-25T00:13:43.044Z,101653.25
2022-08-25T00:14:46.238Z,101649.91
2022-08-25T00:15:48.477Z,101652.63
2022-08-25T00:16:51.927Z,101652.06
2022-08-25T00:17:59.999Z,101657.72
2022-08-25T00:19:07.889Z,101652.53
2022-08-25T00:20:10.909Z,101656.34
2022-08-25T00:21:15.334Z,101647.59
2022-08-25T00:22:17.518Z,101647.59
2022-08-25T00:23:20.800Z,101648.94
2022-08-25T00:24:23.543Z,101641.25
2022-08-25T00:25:27.034Z,101656.50
2022-08-25T00:26:29.935Z,101641.50
2022-08-25T00:27:33.090Z,101648.84
2022-08-25T00:28:35.691Z,101656.16
2022-08-25T00:29:39.174Z,101650.97
2022-08-25T00:30:41.331Z,101643.88
2022-08-25T00:31:45.894Z,101650.38
2022-08-25T00:32:52.522Z,101654.19
2022-08-25T00:34:01.283Z,101656.91
2022-08-25T00:35:05.582Z,101654.63
2022-08-25T00:36:09.635Z,101653.00
2022-08-25T00:37:12.876Z,101664.94
2022-08-25T00:38:16.639Z,101657.84
2022-08-25T00:39:21.203Z,101658.94
2022-08-25T00:40:26.291Z,101654.53
2022-08-25T00:41:29.525Z,101653.16
2022-08-25T00:42:32.115Z,101651.53
2022-08-25T00:43:38.555Z,101653.41
2022-08-25T00:44:40.726Z,101650.94
2022-08-25T00:45:43.907Z,101656.59
2022-08-25T00:46:48.128Z,101653.91
2022-08-25T00:47:51.327Z,101662.03
2022-08-25T00:48:58.148Z,101650.59
2022-08-25T00:50:04.051Z,101649.75
2022-08-25T00:51:11.830Z,101658.97
2022-08-25T00:52:19.566Z,101659.47
2022-08-25T00:53:22.003Z,101658.63
2022-08-25T00:54:29.587Z,101655.09
2022-08-25T00:55:39.257Z,101661.84
2022-08-25T00:56:42.941Z,101656.41
2022-08-25T00:57:48.348Z,101655.81
2022-08-25T00:58:52.047Z,101653.13
2022-08-25T00:59:54.903Z,101652.53
2022-08-25T01:00:59.821Z,101649.22
2022-08-25T01:02:03.854Z,101660.06
2022-08-25T01:03:06.718Z,101656.56
2022-08-25T01:04:10.198Z,101661.16
2022-08-25T01:05:12.674Z,101657.03
2022-08-25T01:06:17.409Z,101656.22
2022-08-25T01:07:22.246Z,101659.97
2022-08-25T01:08:28.877Z,101662.09
2022-08-25T01:09:32.652Z,101657.75
2022-08-25T01:10:37.647Z,101659.06
2022-08-25T01:11:40.626Z,101656.56
2022-08-25T01:12:43.898Z,101661.19
2022-08-25T01:13:52.779Z,101655.78
2022-08-25T01:14:57.860Z,101661.44
2022-08-25T01:16:00.536Z,101657.06
2022-08-25T01:17:03.904Z,101656.47
2022-08-25T01:18:06.403Z,101652.94
2022-08-25T01:19:14.371Z,101661.34
2022-08-25T01:20:20.251Z,101648.81
2022-08-25T01:21:27.715Z,101655.81
2022-08-25T01:22:29.866Z,101654.13
2022-08-25T01:23:33.066Z,101654.13
2022-08-25T01:24:42.163Z,101653.56
2022-08-25T01:25:51.813Z,101661.13
2022-08-25T01:26:54.972Z,101654.03
2022-08-25T01:27:57.157Z,101656.75
2022-08-25T01:29:18.626Z,101658.88
2022-08-25T01:30:21.808Z,101655.56
2022-08-25T01:31:24.441Z,101649.31
2022-08-25T01:32:27.765Z,101646.84
2022-08-25T01:33:29.983Z,101654.97
2022-08-25T01:34:36.276Z,101646.50
2022-08-25T01:35:39.722Z,101658.16
2022-08-25T01:36:46.213Z,101648.38
2022-08-25T01:37:48.467Z,101655.91
2022-08-25T01:38:51.730Z,101654.28
2022-08-25T01:39:54.532Z,101656.97
2022-08-25T01:40:57.731Z,101660.78
2022-08-25T01:42:13.627Z,101656.38
2022-08-25T01:43:26.851Z,101658.50
2022-08-25T01:44:29.384Z,101662.06
2022-08-25T01:45:32.578Z,101661.22
2022-08-25T01:46:34.884Z,101656.88
2022-08-25T01:47:39.093Z,101662.31
2022-08-25T01:48:41.203Z,101663.38
2022-08-25T01:49:44.670Z,101662.53
2022-08-25T01:50:47.037Z,101660.06
2022-08-25T01:51:56.941Z,101666.53
2022-08-25T01:53:03.943Z,101655.94
2022-08-25T01:54:07.527Z,101661.34
2022-08-25T01:55:09.748Z,101668.94
2022-08-25T01:56:15.118Z,101669.13
2022-08-25T01:57:18.614Z,101659.38
2022-08-25T01:58:23.678Z,101664.78
2022-08-25T01:59:26.617Z,101666.91
2022-08-25T02:00:29.996Z,101667.97
2022-08-25T02:01:32.359Z,101665.50
2022-08-25T02:02:35.543Z,101660.34
2022-08-25T02:03:42.372Z,101666.56
2022-08-25T02:04:45.602Z,101667.63
2022-08-25T02:05:48.694Z,101673.28
2022-08-25T02:06:53.711Z,101661.63
2022-08-25T02:07:55.880Z,101671.84
2022-08-25T02:09:01.891Z,101679.44
2022-08-25T02:10:06.354Z,101666.69
2022-08-25T02:11:12.170Z,101672.94
2022-08-25T02:12:15.490Z,101670.47
2022-08-25T02:13:18.849Z,101669.63
2022-08-25T02:14:22.179Z,101668.78
2022-08-25T02:15:24.429Z,101668.00
2022-08-25T02:16:32.164Z,101668.78
2022-08-25T02:17:36.621Z,101670.94
2022-08-25T02:18:39.800Z,101681.78
2022-08-25T02:19:41.961Z,101670.34
2022-08-25T02:20:45.186Z,101669.28
2022-08-25T02:21:47.960Z,101673.06
2022-08-25T02:22:56.949Z,101665.97
2022-08-25T02:23:59.987Z,101658.06
2022-08-25T02:25:04.112Z,101673.53
2022-08-25T02:26:06.440Z,101661.50
2022-08-25T02:27:10.668Z,101667.53
2022-08-25T02:28:13.552Z,101668.56
2022-08-25T02:29:16.984Z,101669.88
2022-08-25T02:30:20.064Z,101665.28
2022-08-25T02:31:25.633Z,101659.28
2022-08-25T02:32:27.976Z,101669.28
2022-08-25T02:33:31.230Z,101664.94
2022-08-25T02:34:33.630Z,101662.47
2022-08-25T02:35:37.409Z,101665.16
2022-08-25T02:36:40.191Z,101668.13
2022-08-25T02:37:43.370Z,101660.00
2022-08-25T02:38:47.244Z,101660.19
2022-08-25T02:39:50.507Z,101661.28
2022-08-25T02:40:52.696Z,101661.28
2022-08-25T02:41:55.825Z,101659.88
2022-08-25T02:42:58.018Z,101658.78
2022-08-25T02:44:01.395Z,101672.59
2022-08-25T02:45:04.613Z,101660.06
2022-08-25T02:46:07.788Z,101665.50
2022-08-25T02:47:10.105Z,101657.38
2022-08-25T02:48:13.590Z,101652.19
2022-08-25T02:49:17.005Z,101656.81
2022-08-25T02:50:19.495Z,101654.31
2022-08-25T02:51:23.895Z,101655.13
2022-08-25T02:52:26.121Z,101641.69
2022-08-25T02:53:30.391Z,101649.13
2022-08-25T02:54:33.981Z,101652.91
2022-08-25T02:55:37.490Z,101643.94
2022-08-25T02:56:42.421Z,101648.78
2022-08-25T02:57:46.548Z,101652.31
2022-08-25T02:58:49.757Z,101645.72
2022-08-25T02:59:51.986Z,101652.78
2022-08-25T03:00:56.079Z,101656.56
2022-08-25T03:01:59.585Z,101660.31
2022-08-25T03:03:01.967Z,101652.41
2022-08-25T03:04:05.476Z,101652.41
2022-08-25T03:05:09.416Z,101653.50
2022-08-25T03:06:14.167Z,101647.72
2022-08-25T03:07:17.705Z,101651.81
2022-08-25T03:08:21.295Z,101646.63
2022-08-25T03:09:23.490Z,101648.53
2022-08-25T03:10:28.268Z,101639.59
2022-08-25T03:11:31.426Z,101636.28
2022-08-25T03:12:35.361Z,101640.06
2022-08-25T03:13:37.999Z,101644.63
2022-08-25T03:14:41.596Z,101645.72
2022-08-25T03:15:46.265Z,101645.91
2022-08-25T03:16:52.559Z,101650.53
2022-08-25T03:17:57.705Z,101649.91
2022-08-25T03:19:03.780Z,101645.19
2022-08-25T03:20:08.861Z,101652.84
2022-08-25T03:21:13.422Z,101652.00
2022-08-25T03:22:17.962Z,101652.25
2022-08-25T03:23:21.666Z,101649.53
2022-08-25T03:24:24.481Z,101647.06
2022-08-25T03:25:43.187Z,101653.31
2022-08-25T03:26:55.908Z,101650.00
2022-08-25T03:27:58.223Z,101652.13
2022-08-25T03:29:05.115Z,101653.19
2022-08-25T03:30:08.644Z,101646.09
2022-08-25T03:31:11.896Z,101645.31
2022-08-25T03:32:14.175Z,101636.22
2022-08-25T03:33:17.575Z,101642.81
2022-08-25T03:34:20.834Z,101634.56
2022-08-25T03:35:24.979Z,101624.44
2022-08-25T03:36:28.695Z,101635.63
2022-08-25T03:37:31.084Z,101645.97
2022-08-25T03:38:35.004Z,101634.56
2022-08-25T03:39:37.315Z,101631.03
2022-08-25T03:40:41.959Z,101632.91
2022-08-25T03:41:45.000Z,101640.19
2022-08-25T03:42:48.493Z,101628.56
2022-08-25T03:43:51.627Z,101635.03
2022-08-25T03:44:55.086Z,101634.22
2022-08-25T03:45:57.394Z,101628.19
2022-08-25T03:47:00.721Z,101625.50
2022-08-25T03:48:03.254Z,101624.91
2022-08-25T03:49:09.471Z,101625.13
2022-08-25T03:50:12.637Z,101625.13
2022-08-25T03:51:21.526Z,101622.66
2022-08-25T03:52:23.925Z,101636.19
2022-08-25T03:53:27.262Z,101631.03
2022-08-25T03:54:29.845Z,101623.94
2022-08-25T03:55:33.221Z,101623.94
2022-08-25T03:56:38.028Z,101627.72
2022-08-25T03:57:41.602Z,101626.50
2022-08-25T03:58:43.934Z,101625.25
2022-08-25T03:59:47.116Z,101629.81
2022-08-25T04:00:49.354Z,101630.66
2022-08-25T04:01:55.142Z,101631.69
2022-08-25T04:02:57.655Z,101634.63
2022-08-25T04:04:00.826Z,101631.94
2022-08-25T04:05:03.101Z,101638.41
2022-08-25T04:06:08.984Z,101634.88
2022-08-25T04:07:11.246Z,101627.81
2022-08-25T04:08:14.878Z,101626.97
2022-08-25T04:09:17.051Z,101625.34
2022-08-25T04:10:20.531Z,101622.84
2022-08-25T04:11:23.963Z,101620.13
2022-08-25T04:12:28.570Z,101620.38
2022-08-25T04:13:31.347Z,101618.72
2022-08-25T04:14:34.661Z,101617.66
2022-08-25T04:15:36.838Z,101624.13
2022-08-25T04:16:40.074Z,101618.72
2022-08-25T04:17:42.276Z,101633.34
2022-08-25T04:18:45.943Z,101633.34
2022-08-25T04:19:48.153Z,101622.72
2022-08-25T04:20:51.384Z,101630.81
2022-08-25T04:21:56.730Z,101631.06
2022-08-25T04:23:01.397Z,101629.19
2022-08-25T04:24:04.168Z,101633.78
2022-08-25T04:25:08.421Z,101628.59
2022-08-25T04:26:11.450Z,101634.84
2022-08-25T04:27:14.602Z,101631.28
2022-08-25T04:28:18.131Z,101635.06
2022-08-25T04:29:23.818Z,101633.41
2022-08-25T04:30:26.146Z,101624.72
2022-08-25T04:31:30.914Z,101627.19
2022-08-25T04:32:33.134Z,101630.94
2022-08-25T04:33:36.730Z,101629.75
2022-08-25T04:34:39.112Z,101644.22
2022-08-25T04:35:42.287Z,101635.31
2022-08-25T04:36:44.671Z,101642.81
2022-08-25T04:37:55.806Z,101641.75
2022-08-25T04:38:58.074Z,101649.31
2022-08-25T04:40:01.389Z,101648.00
2022-08-25T04:41:06.158Z,101651.53
2022-08-25T04:42:09.543Z,101647.16
2022-08-25T04:43:11.659Z,101649.88
2022-08-25T04:44:16.273Z,101647.16
2022-08-25T04:45:18.814Z,101652.34
2022-08-25T04:46:24.647Z,101642.59
2022-08-25T04:47:28.154Z,101648.00
2022-08-25T04:48:32.762Z,101648.84
2022-08-25T04:49:36.014Z,101651.31
2022-08-25T04:50:40.109Z,101652.94
2022-08-25T04:51:42.681Z,101649.44
2022-08-25T04:52:46.158Z,101645.91
2022-08-25T04:53:48.319Z,101646.72
2022-08-25T04:54:51.635Z,101648.38
2022-08-25T04:55:53.769Z,101653.78
2022-08-25T04:56:58.312Z,101647.31
2022-08-25T04:58:01.133Z,101650.84
2022-08-25T04:59:06.834Z,101653.31
2022-08-25T05:00:11.910Z,101649.56
2022-08-25T05:01:17.851Z,101646.88
2022-08-25T05:02:20.080Z,101648.50
2022-08-25T05:03:23.266Z,101648.28
2022-08-25T05:04:28.299Z,101646.41
2022-08-25T05:05:32.805Z,101642.84
2022-08-25T05:06:36.097Z,101639.91
2022-08-25T05:07:39.367Z,101652.41
2022-08-25T05:08:41.576Z,101636.97
2022-08-25T05:09:44.688Z,101633.22
2022-08-25T05:10:46.830Z,101633.00
2022-08-25T05:11:50.195Z,101638.19
2022-08-25T05:12:52.611Z,101634.41
2022-08-25T05:13:58.292Z,101631.44
2022-08-25T05:15:21.010Z,101629.34
2022-08-25T05:16:27.238Z,101623.94
2022-08-25T05:17:29.414Z,101619.13
2022-08-25T05:18:35.481Z,101612.63
2022-08-25T05:19:38.732Z,101621.34
2022-08-25T05:20:40.888Z,101616.53
2022-08-25T05:21:44.162Z,101622.56
2022-08-25T05:22:46.649Z,101617.97
2022-08-25T05:23:50.132Z,101618.53
2022-08-25T05:24:52.332Z,101623.72
2022-08-25T05:25:55.813Z,101618.09
2022-08-25T05:26:59.253Z,101615.16
2022-08-25T05:28:01.938Z,101611.38
2022-08-25T05:29:06.191Z,101613.00
2022-08-25T05:30:09.865Z,101617.97
2022-08-25T05:31:15.246Z,101617.75
2022-08-25T05:32:20.000Z,101609.38
2022-08-25T05:33:41.044Z,101618.09
2022-08-25T05:34:44.339Z,101610.56
2022-08-25T05:35:46.564Z,101603.03
2022-08-25T05:36:51.215Z,101607.41
2022-08-25T05:37:53.399Z,101608.00
2022-08-25T05:38:57.034Z,101605.09
2022-08-25T05:39:59.314Z,101612.72
2022-08-25T05:41:05.308Z,101603.28
2022-08-25T05:42:08.775Z,101608.47
2022-08-25T05:43:12.361Z,101608.22
2022-08-25T05:44:20.905Z,101612.13
2022-08-25T05:45:24.227Z,101613.78
2022-08-25T05:46:27.554Z,101614.38
2022-08-25T05:47:35.315Z,101618.75
2022-08-25T05:48:38.711Z,101608.16
2022-08-25T05:49:40.838Z,101621.81
2022-08-25T05:50:51.707Z,101618.88
2022-08-25T05:51:54.912Z,101611.28
2022-08-25T05:52:57.078Z,101620.03
2022-08-25T05:54:00.249Z,101618.75
2022-08-25T05:55:02.465Z,101622.84
2022-08-25T05:56:05.830Z,101623.44
2022-08-25T05:57:09.225Z,101627.78
2022-08-25T05:58:12.462Z,101622.72
2022-08-25T05:59:16.499Z,101620.59
2022-08-25T06:00:19.917Z,101622.03
2022-08-25T06:01:45.096Z,101624.50
2022-08-25T06:02:49.731Z,101617.75
2022-08-25T06:03:54.396Z,101609.63
2022-08-25T06:04:58.315Z,101618.72
2022-08-25T06:06:06.933Z,101621.78
2022-08-25T06:07:10.458Z,101623.41
2022-08-25T06:08:12.706Z,101623.16
2022-08-25T06:09:16.254Z,101620.22
2022-08-25T06:10:20.213Z,101621.66
2022-08-25T06:11:23.870Z,101614.09
2022-08-25T06:12:27.068Z,101622.00
2022-08-25T06:13:30.265Z,101613.84
2022-08-25T06:14:32.447Z,101607.94
2022-08-25T06:15:35.586Z,101611.25
2022-08-25T06:16:38.846Z,101613.72
2022-08-25T06:17:43.088Z,101616.44
2022-08-25T06:18:46.632Z,101614.56
2022-08-25T06:19:49.767Z,101620.78
2022-08-25T06:20:53.471Z,101611.25
2022-08-25T06:21:57.767Z,101607.47
2022-08-25T06:23:01.823Z,101615.00
2022-08-25T06:24:04.628Z,101614.81
2022-08-25T06:25:09.494Z,101615.84
2022-08-25T06:26:21.186Z,101622.09
2022-08-25T06:27:24.768Z,101621.03
2022-08-25T06:28:27.050Z,101612.91
2022-08-25T06:29:30.227Z,101626.22
2022-08-25T06:30:33.395Z,101615.59
2022-08-25T06:31:35.604Z,101619.97
2022-08-25T06:32:40.312Z,101613.72
2022-08-25T06:33:42.557Z,101609.94
2022-08-25T06:34:47.320Z,101614.31
2022-08-25T06:35:53.331Z,101613.00
2022-08-25T06:36:56.551Z,101609.81
2022-08-25T06:38:00.896Z,101614.78
2022-08-25T06:39:04.517Z,101617.84
2022-08-25T06:40:08.779Z,101611.13
2022-08-25T06:41:12.581Z,101612.84
2022-08-25T06:42:14.734Z,101612.94
2022-08-25T06:43:17.927Z,101612.25
2022-08-25T06:44:20.254Z,101620.25
2022-08-25T06:45:23.437Z,101614.91
2022-08-25T06:46:36.152Z,101621.28
2022-08-25T06:47:38.818Z,101623.84
2022-08-25T06:48:42.643Z,101620.63
2022-08-25T06:49:46.749Z,101616.94
2022-08-25T06:50:49.910Z,101621.66
2022-08-25T06:51:52.133Z,101611.34
2022-08-25T06:52:55.497Z,101617.94
2022-08-25T06:53:57.623Z,101619.34
2022-08-25T06:55:01.305Z,101616.06
2022-08-25T06:56:06.604Z,101614.25
2022-08-25T06:57:10.742Z,101615.91
2022-08-25T06:58:12.950Z,101620.50
2022-08-25T06:59:17.542Z,101612.38
2022-08-25T07:00:21.156Z,101624.31
2022-08-25T07:01:27.230Z,101619.13
2022-08-25T07:02:30.799Z,101628.31
2022-08-25T07:03:37.716Z,101625.84
2022-08-25T07:04:41.146Z,101623.38
2022-08-25T07:05:52.485Z,101632.13
2022-08-25T07:06:55.809Z,101632.91
2022-08-25T07:07:58.035Z,101630.53
2022-08-25T07:09:01.417Z,101634.44
2022-08-25T07:10:04.108Z,101635.59
2022-08-25T07:11:08.027Z,101640.28
2022-08-25T07:12:19.721Z,101633.78
2022-08-25T07:13:22.218Z,101640.97
2022-08-25T07:14:25.369Z,101642.63
2022-08-25T07:15:28.539Z,101644.03
2022-08-25T07:16:31.796Z,101638.38
2022-08-25T07:17:35.048Z,101644.34
2022-08-25T07:18:38.568Z,101643.28
2022-08-25T07:19:41.724Z,101634.91
2022-08-25T07:20:45.863Z,101649.06
2022-08-25T07:21:53.218Z,101638.19
2022-08-25T07:22:55.457Z,101643.88
2022-08-25T07:24:00.268Z,101635.16
2022-08-25T07:25:03.512Z,101645.75
2022-08-25T07:26:21.526Z,101644.94
2022-08-25T07:27:34.987Z,101641.63
2022-08-25T07:28:37.500Z,101646.84
2022-08-25T07:29:51.224Z,101638.69
2022-08-25T07:30:53.398Z,101634.91
2022-08-25T07:31:56.699Z,101634.41
2022-08-25T07:33:00.060Z,101630.38
2022-08-25T07:34:23.190Z,101630.72
2022-08-25T07:35:27.398Z,101629.13
2022-08-25T07:36:41.324Z,101627.56
2022-08-25T07:37:49.269Z,101635.22
2022-08-25T07:38:52.363Z,101627.41
2022-08-25T07:39:55.897Z,101623.09
2022-08-25T07:41:03.948Z,101623.09
2022-08-25T07:42:12.013Z,101628.06
2022-08-25T07:43:15.411Z,101623.75
2022-08-25T07:44:18.388Z,101622.47
2022-08-25T07:45:29.624Z,101633.66
2022-08-25T07:46:31.855Z,101627.72
2022-08-25T07:47:37.071Z,101628.88
2022-08-25T07:48:40.476Z,101628.94
2022-08-25T07:49:42.685Z,101621.91
2022-08-25T07:50:46.593Z,101631.81
2022-08-25T07:52:05.647Z,101628.09
2022-08-25T07:53:10.355Z,101635.47
2022-08-25T07:54:12.843Z,101631.72
2022-08-25T07:55:17.941Z,101629.09
2022-08-25T07:56:21.420Z,101632.06
2022-08-25T07:57:26.343Z,101634.03
2022-08-25T07:58:30.045Z,101629.16
2022-08-25T07:59:39.191Z,101637.84
2022-08-25T08:00:43.374Z,101632.75
2022-08-25T08:01:45.570Z,101630.59
2022-08-25T08:02:48.992Z,101637.19
2022-08-25T08:03:52.373Z,101632.31
2022-08-25T08:04:55.585Z,101638.31
2022-08-25T08:05:58.151Z,101628.84
2022-08-25T08:07:02.744Z,101622.56
2022-08-25T08:08:05.103Z,101623.97
2022-08-25T08:09:08.425Z,101619.31
2022-08-25T08:11:45.154Z,101628.00
2022-08-25T08:12:55.693Z,101630.16
2022-08-25T08:13:59.382Z,101633.97
2022-08-25T08:15:02.744Z,101631.50
2022-08-25T08:16:10.411Z,101625.78
2022-08-25T08:17:13.825Z,101619.78
2022-08-25T08:18:18.470Z,101627.75
2022-08-25T08:19:23.123Z,101633.19
2022-08-25T08:20:27.388Z,101631.88
2022-08-25T08:21:35.078Z,101631.94
2022-08-25T08:22:42.091Z,101635.25
2022-08-25T08:23:44.443Z,101631.38
2022-08-25T08:24:54.438Z,101634.16
2022-08-25T08:25:58.891Z,101628.69
2022-08-25T08:27:02.791Z,101635.78
2022-08-25T08:28:07.123Z,101635.53
2022-08-25T08:29:10.852Z,101638.56
2022-08-25T08:30:15.401Z,101628.75
2022-08-25T08:31:19.657Z,101637.56
2022-08-25T08:32:32.422Z,101633.25
2022-08-25T08:33:43.745Z,101632.50
2022-08-25T08:34:51.298Z,101638.19
2022-08-25T08:35:59.347Z,101628.94
2022-08-25T08:37:02.045Z,101632.22
2022-08-25T08:38:14.953Z,101626.28
2022-08-25T08:39:20.653Z,101629.56
2022-08-25T08:40:24.683Z,101632.03
2022-08-25T08:42:11.156Z,101635.81
2022-08-25T08:43:19.831Z,101637.16
2022-08-25T08:44:28.170Z,101637.69
2022-08-25T08:45:40.208Z,101637.09
2022-08-25T08:46:55.051Z,101634.06
2022-08-25T08:48:19.651Z,101634.91
2022-08-25T08:49:31.753Z,101634.91
2022-08-25T08:50:42.196Z,101634.91
2022-08-25T08:51:54.172Z,101633.56
2022-08-25T08:53:03.524Z,101634.13
2022-08-25T08:54:15.533Z,101630.56
2022-08-25T08:55:27.190Z,101626.78
2022-08-25T08:56:37.659Z,101625.44
2022-08-25T08:57:51.679Z,101623.56
2022-08-25T08:59:00.577Z,101619.75
2022-08-25T09:00:07.966Z,101618.69
2022-08-25T09:01:13.732Z,101622.50
2022-08-25T09:02:39.614Z,101628.84
2022-08-25T09:03:55.714Z,101620.25
2022-08-25T09:05:01.507Z,101623.28
2022-08-25T09:06:08.915Z,101618.44
2022-08-25T09:07:17.839Z,101623.38
2022-08-25T09:08:24.010Z,101618.75
2022-08-25T09:09:36.011Z,101618.50
2022-08-25T09:10:54.206Z,101621.22
2022-08-25T09:12:10.952Z,101623.41
2022-08-25T09:13:26.061Z,101616.88
2022-08-25T09:14:46.178Z,101614.13
2022-08-25T09:16:31.899Z,101621.53
2022-08-25T09:17:44.124Z,101622.91
2022-08-25T09:19:08.471Z,101612.81
2022-08-25T09:20:30.497Z,101618.84
2022-08-25T09:21:40.767Z,101614.78
2022-08-25T09:23:01.161Z,101611.56
2022-08-25T09:24:27.615Z,101618.09
2022-08-25T09:25:52.707Z,101612.66
2022-08-25T09:27:07.628Z,101618.16
2022-08-25T09:28:26.931Z,101614.09
2022-08-25T09:29:42.463Z,101612.22
2022-08-25T09:30:50.850Z,101613.91
2022-08-25T09:31:57.873Z,101617.75
2022-08-25T09:33:05.137Z,101620.25
2022-08-25T09:34:13.522Z,101614.03
2022-08-25T09:35:20.670Z,101624.16
2022-08-25T09:36:23.972Z,101619.84
2022-08-25T09:37:26.183Z,101613.88
2022-08-25T09:38:32.063Z,101617.47
2022-08-25T09:39:34.241Z,101619.38
2022-08-25T09:40:42.535Z,101628.97
2022-08-25T09:41:51.213Z,101618.38
2022-08-25T09:42:58.756Z,101624.16
2022-08-25T09:44:01.109Z,101621.75
2022-08-25T09:45:05.434Z,101625.06
2022-08-25T09:46:12.903Z,101618.25
2022-08-25T09:47:24.083Z,101622.94
2022-08-25T09:48:28.710Z,101615.59
2022-08-25T09:49:41.380Z,101614.56
2022-08-25T09:50:46.815Z,101608.28
2022-08-25T09:51:52.762Z,101609.66
2022-08-25T09:52:55.078Z,101611.31
2022-08-25T09:54:01.550Z,101600.38
2022-08-25T09:55:27.507Z,101605.84
2022-08-25T09:56:34.047Z,101598.75
2022-08-25T09:57:37.885Z,101596.81
2022-08-25T09:58:41.437Z,101593.00
2022-08-25T09:59:57.645Z,101585.63
2022-08-25T10:01:05.125Z,101579.34
2022-08-25T10:02:26.439Z,101574.69
2022-08-25T10:03:30.704Z,101584.84
2022-08-25T10:04:40.277Z,101572.53
2022-08-25T10:06:00.964Z,101566.81
2022-08-25T10:07:20.002Z,101568.75
2022-08-25T10:08:30.423Z,101569.28
2022-08-25T10:09:39.444Z,101566.81
2022-08-25T10:10:46.534Z,101570.66
2022-08-25T10:11:52.690Z,101567.09
2022-08-25T10:13:01.197Z,101569.56
2022-08-25T10:14:16.154Z,101560.59
2022-08-25T10:15:30.052Z,101564.94
2022-08-25T10:16:36.123Z,101558.38
2022-08-25T10:17:39.616Z,101562.81
2022-08-25T10:18:42.926Z,101561.13
2022-08-25T10:19:45.287Z,101559.50
2022-08-25T10:21:09.762Z,101562.81
2022-08-25T10:22:24.403Z,101556.22
2022-08-25T10:23:28.054Z,101555.16
2022-08-25T10:24:35.079Z,101553.19
2022-08-25T10:25:57.921Z,101550.75
2022-08-25T10:27:17.034Z,101557.03
2022-08-25T10:28:29.622Z,101557.56
2022-08-25T10:29:53.209Z,101555.38
2022-08-25T10:31:01.651Z,101559.16
2022-08-25T10:32:12.316Z,101552.06
2022-08-25T10:33:27.730Z,101556.97
2022-08-25T10:34:44.606Z,101556.66
2022-08-25T10:35:57.488Z,101550.88
2022-08-25T10:37:13.507Z,101531.44
2022-08-25T10:38:36.110Z,101529.78
2022-08-25T10:39:43.583Z,101531.38
2022-08-25T10:40:53.765Z,101536.81
2022-08-25T10:42:05.241Z,101526.13
2022-08-25T10:43:19.227Z,101531.88
2022-08-25T10:44:53.534Z,101527.19
2022-08-25T10:46:11.292Z,101525.22
2022-08-25T10:47:35.092Z,101523.03
2022-08-25T10:48:51.948Z,101510.41
2022-08-25T10:49:56.659Z,101516.69
2022-08-25T10:51:07.220Z,101510.63
2022-08-25T10:52:17.549Z,101507.03
2022-08-25T10:53:29.046Z,101511.34
2022-08-25T10:54:37.367Z,101508.88
2022-08-25T10:55:50.668Z,101512.69
2022-08-25T10:57:07.111Z,101505.22
2022-08-25T10:58:23.365Z,101505.13
2022-08-25T10:59:43.985Z,101514.34
2022-08-25T11:00:53.411Z,101501.97
2022-08-25T11:02:28.444Z,101499.69
2022-08-25T11:03:45.944Z,101505.31
2022-08-25T11:04:55.696Z,101498.59
2022-08-25T11:06:04.583Z,101492.97
2022-08-25T11:07:13.170Z,101496.72
2022-08-25T11:08:22.225Z,101493.38
2022-08-25T11:09:30.217Z,101493.88
2022-08-25T11:10:39.512Z,101491.59
2022-08-25T11:11:50.775Z,101489.28
2022-08-25T11:12:58.076Z,101488.13
2022-08-25T11:14:09.247Z,101485.25
2022-08-25T11:15:21.322Z,101487.88
2022-08-25T11:16:35.991Z,101478.66
2022-08-25T11:17:50.346Z,101488.41
2022-08-25T11:18:59.581Z,101481.13
2022-08-25T11:20:08.574Z,101476.28
2022-08-25T11:21:16.638Z,101473.66
2022-08-25T11:22:25.829Z,101477.06
2022-08-25T11:23:35.298Z,101475.56
2022-08-25T11:24:54.109Z,101474.06
2022-08-25T11:26:00.535Z,101470.69
2022-08-25T11:27:07.511Z,101463.50
2022-08-25T11:28:13.528Z,101468.94
2022-08-25T11:29:21.115Z,101462.81
2022-08-25T11:30:23.842Z,101468.75
2022-08-25T11:31:29.949Z,101451.31
2022-08-25T11:32:35.586Z,101463.66
2022-08-25T11:33:39.388Z,101461.22
2022-08-25T11:34:43.785Z,101457.94
2022-08-25T11:35:51.144Z,101457.13
2022-08-25T11:36:59.820Z,101458.56
2022-08-25T11:38:21.601Z,101466.28
2022-08-25T11:39:44.302Z,101462.81
2022-08-25T11:41:00.370Z,101465.66
2022-08-25T11:42:15.059Z,101462.75
2022-08-25T11:43:35.936Z,101469.25
2022-08-25T11:44:54.022Z,101458.94
2022-08-25T11:46:27.677Z,101457.47
2022-08-25T11:48:05.329Z,101449.09
2022-08-25T11:49:51.104Z,101448.88
2022-08-25T11:51:01.815Z,101446.63
2022-08-25T11:52:07.443Z,101454.31
2022-08-25T11:53:26.651Z,101451.75
2022-08-25T11:54:35.358Z,101451.47
2022-08-25T11:55:50.692Z,101437.34
2022-08-25T11:56:58.816Z,101436.94
2022-08-25T11:58:35.578Z,101434.91
2022-08-25T12:00:12.419Z,101431.88
2022-08-25T12:02:04.172Z,101429.72
2022-08-25T12:03:40.535Z,101431.16
2022-08-25T12:04:45.388Z,101421.47
2022-08-25T12:05:52.410Z,101418.31
2022-08-25T12:07:21.985Z,101420.63
2022-08-25T12:08:49.786Z,101418.19
2022-08-25T12:10:20.741Z,101426.16
2022-08-25T12:11:48.233Z,101427.81
2022-08-25T12:13:02.309Z,101422.88
2022-08-25T12:14:18.583Z,101412.31
2022-08-25T12:15:23.675Z,101418.22
2022-08-25T12:16:40.153Z,101409.03
2022-08-25T12:17:43.485Z,101409.84
2022-08-25T12:18:46.487Z,101415.34
2022-08-25T12:19:57.278Z,101413.75
2022-08-25T12:21:23.994Z,101412.28
2022-08-25T12:22:56.887Z,101408.59
2022-08-25T12:24:16.498Z,101409.00
2022-08-25T12:25:55.235Z,101406.34
2022-08-25T12:27:00.999Z,101419.38
2022-08-25T12:28:15.290Z,101411.81
2022-08-25T12:29:28.237Z,101410.50
2022-08-25T12:30:45.760Z,101423.97
2022-08-25T12:32:04.629Z,101415.81
2022-08-25T12:33:17.603Z,101407.47
2022-08-25T12:34:39.248Z,101404.41
2022-08-25T12:35:56.260Z,101398.69
2022-08-25T12:37:06.427Z,101402.88
2022-08-25T12:38:13.788Z,101396.56
2022-08-25T12:39:24.572Z,101397.09
2022-08-25T12:40:32.416Z,101400.50
2022-08-25T12:41:36.191Z,101398.78
2022-08-25T12:42:43.386Z,101397.66
2022-08-25T12:43:51.621Z,101391.94
2022-08-25T12:45:16.074Z,101393.50
2022-08-25T12:46:39.509Z,101390.47
2022-08-25T12:47:44.723Z,101387.94
2022-08-25T12:49:12.146Z,101390.88